Lantana, FL

3:30 PM EDT on April 27, 2015 (GMT -0400)
Island Estates | | Change Station
CLOSE
Current Station
Personal Weather Station
Location: Lantana, FL
Elevation: 45 ft
Nearby Weather Stations

Elev 45 ft 26.57 °N, 80.08 °W | Updated 32 seconds ago

Partly Cloudy
Partly Cloudy
95.6 °F
Feels Like 101 °F
N
1.0
Wind Variable Wind from West
Gusts 1.0 mph

Today
High -- | Low -- °F
--% Chance of Precip.
Yesterday
High -- | Low -- °F
Precip. -- in
6:45 AM 7:50 PM
Waxing Gibbous, 67% visible
Pressure 29.77 in
Visibility 10.0 miles
Clouds Few 3100 ft
Scattered Clouds 11000 ft
Mostly Cloudy 25000 ft
Heat Index 101 °F
Dew Point 68 °F
Humidity 41%
Rainfall 0.02 in
Snow Depth Not available.
UV 7 out of 12
Pollen 7.30 out of 12
Air Quality Not available.
Flu Activity Local Activity
METAR KPBI 271853Z 34009KT 10SM FEW031 SCT110 BKN250 33/20 A2977 RMK AO2 SLP081 T03330200

More Conditions Fewer Conditions

Pressure 29.77 in
Visibility 10.0 miles
Clouds Few 3100 ft
Scattered Clouds 11000 ft
Mostly Cloudy 25000 ft
Heat Index 101 °F
Dew Point 68 °F
Humidity 41%
Rainfall 0.02 in
Snow Depth Not available.
UV 7 out of 12
Pollen 7.30 out of 12
Air Quality Not available.
Flu Activity Local Activity
METAR KPBI 271853Z 34009KT 10SM FEW031 SCT110 BKN250 33/20 A2977 RMK AO2 SLP081 T03330200

More Conditions Fewer Conditions

10-Day Weather Forecast

Almanac

Astronomy

Apr. 27, 2015 Rise Set
Actual Time
Civil Twilight
Nautical Twilight
Astronomical Twilight
Moon
Length of Visible Light
Length of Day
Tomorrow will be .
, % of the Moon is Illuminated

Today's Extremes

State Highs State Lows

Community

WunderPhotos

Upload Photos

1,817,413 photos uploaded!

WunderBlogs® & News

Nearby

Air Quality

  Air Quality AQ Index Pollutant
Not available.

Snow Depth

Station Depth Elevation

Earthquake Activity

City Distance Mag. Time & Date
Minimum magnitude displayed is 2.5.

Coastal Water Temperatures

Place Temperature

Stations

Nearby Weather Stations

Station Location Temp. Windchill Dew Point Humidity Wind Precip. Elev Updated Type